sensor_id;sensor_type;location;lat;lon;timestamp;P1;durP1;ratioP1;P2;durP2;ratioP2
33150;SDS011;19508;42.578;23.416;2023-04-06T00:01:25;37.45;;;17.60;;
33150;SDS011;19508;42.578;23.416;2023-04-06T00:03:51;25.13;;;14.50;;
33150;SDS011;19508;42.578;23.416;2023-04-06T00:06:16;24.35;;;13.15;;
33150;SDS011;19508;42.578;23.416;2023-04-06T00:08:42;29.00;;;14.27;;
33150;SDS011;19508;42.578;23.416;2023-04-06T00:11:08;32.45;;;16.52;;
33150;SDS011;19508;42.578;23.416;2023-04-06T00:13:33;25.10;;;13.48;;
33150;SDS011;19508;42.578;23.416;2023-04-06T00:15:59;28.48;;;14.40;;
33150;SDS011;19508;42.578;23.416;2023-04-06T00:18:24;33.00;;;16.95;;
33150;SDS011;19508;42.578;23.416;2023-04-06T00:20:49;28.20;;;14.57;;
33150;SDS011;19508;42.578;23.416;2023-04-06T00:23:16;26.42;;;13.23;;
33150;SDS011;19508;42.578;23.416;2023-04-06T00:25:41;25.73;;;13.73;;
33150;SDS011;19508;42.578;23.416;2023-04-06T00:28:07;34.60;;;16.92;;
33150;SDS011;19508;42.578;23.416;2023-04-06T00:30:32;28.25;;;14.70;;
33150;SDS011;19508;42.578;23.416;2023-04-06T00:32:58;31.48;;;14.80;;
33150;SDS011;19508;42.578;23.416;2023-04-06T00:35:23;28.63;;;15.10;;
33150;SDS011;19508;42.578;23.416;2023-04-06T00:37:49;35.25;;;15.23;;
33150;SDS011;19508;42.578;23.416;2023-04-06T00:40:14;25.75;;;14.35;;
33150;SDS011;19508;42.578;23.416;2023-04-06T00:42:40;30.42;;;14.90;;
33150;SDS011;19508;42.578;23.416;2023-04-06T00:45:06;35.58;;;16.98;;
33150;SDS011;19508;42.578;23.416;2023-04-06T00:47:32;44.25;;;17.80;;
33150;SDS011;19508;42.578;23.416;2023-04-06T00:49:58;55.38;;;21.33;;
33150;SDS011;19508;42.578;23.416;2023-04-06T00:52:23;43.40;;;18.52;;
33150;SDS011;19508;42.578;23.416;2023-04-06T00:54:49;41.65;;;17.55;;
33150;SDS011;19508;42.578;23.416;2023-04-06T00:57:15;30.98;;;14.27;;
33150;SDS011;19508;42.578;23.416;2023-04-06T00:59:41;26.08;;;14.57;;
33150;SDS011;19508;42.578;23.416;2023-04-06T01:02:07;29.45;;;15.35;;
33150;SDS011;19508;42.578;23.416;2023-04-06T01:04:33;53.22;;;21.30;;
33150;SDS011;19508;42.578;23.416;2023-04-06T01:06:59;33.05;;;16.73;;
33150;SDS011;19508;42.578;23.416;2023-04-06T01:09:27;30.45;;;14.43;;
33150;SDS011;19508;42.578;23.416;2023-04-06T01:11:54;29.92;;;15.05;;
33150;SDS011;19508;42.578;23.416;2023-04-06T01:14:21;32.08;;;15.60;;
33150;SDS011;19508;42.578;23.416;2023-04-06T01:16:46;30.35;;;16.10;;
33150;SDS011;19508;42.578;23.416;2023-04-06T01:19:12;27.75;;;14.02;;
33150;SDS011;19508;42.578;23.416;2023-04-06T01:21:38;27.25;;;14.05;;
33150;SDS011;19508;42.578;23.416;2023-04-06T01:24:04;25.90;;;14.65;;
33150;SDS011;19508;42.578;23.416;2023-04-06T01:26:31;23.50;;;13.57;;
33150;SDS011;19508;42.578;23.416;2023-04-06T01:28:58;28.50;;;13.80;;
33150;SDS011;19508;42.578;23.416;2023-04-06T01:31:23;23.85;;;13.43;;
33150;SDS011;19508;42.578;23.416;2023-04-06T01:33:49;28.88;;;14.13;;
33150;SDS011;19508;42.578;23.416;2023-04-06T01:36:15;22.80;;;13.27;;
33150;SDS011;19508;42.578;23.416;2023-04-06T01:38:41;25.20;;;13.73;;
33150;SDS011;19508;42.578;23.416;2023-04-06T01:41:07;24.98;;;13.35;;
33150;SDS011;19508;42.578;23.416;2023-04-06T01:43:33;24.83;;;13.15;;
33150;SDS011;19508;42.578;23.416;2023-04-06T01:45:59;23.05;;;13.63;;
33150;SDS011;19508;42.578;23.416;2023-04-06T01:48:25;26.23;;;14.18;;
33150;SDS011;19508;42.578;23.416;2023-04-06T01:50:51;24.17;;;12.98;;
33150;SDS011;19508;42.578;23.416;2023-04-06T01:53:17;29.38;;;15.32;;
33150;SDS011;19508;42.578;23.416;2023-04-06T01:55:42;31.63;;;16.67;;
33150;SDS011;19508;42.578;23.416;2023-04-06T01:58:08;30.90;;;14.52;;
33150;SDS011;19508;42.578;23.416;2023-04-06T02:00:33;28.67;;;14.90;;
33150;SDS011;19508;42.578;23.416;2023-04-06T02:02:59;34.50;;;16.58;;
33150;SDS011;19508;42.578;23.416;2023-04-06T02:05:24;32.92;;;15.77;;
33150;SDS011;19508;42.578;23.416;2023-04-06T02:07:50;25.70;;;14.50;;
33150;SDS011;19508;42.578;23.416;2023-04-06T02:10:16;22.83;;;13.05;;
33150;SDS011;19508;42.578;23.416;2023-04-06T02:12:42;29.67;;;15.32;;
33150;SDS011;19508;42.578;23.416;2023-04-06T02:15:07;30.15;;;15.25;;
33150;SDS011;19508;42.578;23.416;2023-04-06T02:17:33;31.08;;;15.85;;
33150;SDS011;19508;42.578;23.416;2023-04-06T02:19:58;36.15;;;18.70;;
33150;SDS011;19508;42.578;23.416;2023-04-06T02:22:24;34.50;;;16.13;;
33150;SDS011;19508;42.578;23.416;2023-04-06T02:24:49;29.30;;;14.70;;
33150;SDS011;19508;42.578;23.416;2023-04-06T02:27:15;27.80;;;15.32;;
33150;SDS011;19508;42.578;23.416;2023-04-06T02:29:40;33.53;;;15.63;;
33150;SDS011;19508;42.578;23.416;2023-04-06T02:32:06;23.85;;;13.43;;
33150;SDS011;19508;42.578;23.416;2023-04-06T02:34:31;27.85;;;15.68;;
33150;SDS011;19508;42.578;23.416;2023-04-06T02:36:57;28.13;;;15.07;;
33150;SDS011;19508;42.578;23.416;2023-04-06T02:39:22;43.13;;;21.70;;
33150;SDS011;19508;42.578;23.416;2023-04-06T02:41:47;35.72;;;18.20;;
33150;SDS011;19508;42.578;23.416;2023-04-06T02:44:13;30.88;;;16.92;;
33150;SDS011;19508;42.578;23.416;2023-04-06T02:46:38;33.10;;;15.93;;
33150;SDS011;19508;42.578;23.416;2023-04-06T02:49:04;31.77;;;16.10;;
33150;SDS011;19508;42.578;23.416;2023-04-06T02:51:30;29.80;;;14.60;;
33150;SDS011;19508;42.578;23.416;2023-04-06T02:53:55;23.67;;;12.45;;
33150;SDS011;19508;42.578;23.416;2023-04-06T02:56:21;25.77;;;13.25;;
33150;SDS011;19508;42.578;23.416;2023-04-06T02:58:47;24.85;;;12.15;;
33150;SDS011;19508;42.578;23.416;2023-04-06T03:01:12;28.33;;;13.50;;
33150;SDS011;19508;42.578;23.416;2023-04-06T03:03:38;30.38;;;15.95;;
33150;SDS011;19508;42.578;23.416;2023-04-06T03:06:03;31.70;;;15.23;;
33150;SDS011;19508;42.578;23.416;2023-04-06T03:08:29;36.10;;;18.05;;
33150;SDS011;19508;42.578;23.416;2023-04-06T03:10:55;37.53;;;17.00;;
33150;SDS011;19508;42.578;23.416;2023-04-06T03:13:21;64.40;;;25.13;;
33150;SDS011;19508;42.578;23.416;2023-04-06T03:15:46;55.35;;;21.38;;
33150;SDS011;19508;42.578;23.416;2023-04-06T03:18:12;28.17;;;14.48;;
33150;SDS011;19508;42.578;23.416;2023-04-06T03:20:37;29.23;;;14.20;;
33150;SDS011;19508;42.578;23.416;2023-04-06T03:23:03;33.72;;;16.45;;
33150;SDS011;19508;42.578;23.416;2023-04-06T03:25:29;28.85;;;14.05;;
33150;SDS011;19508;42.578;23.416;2023-04-06T03:27:55;32.15;;;15.40;;
33150;SDS011;19508;42.578;23.416;2023-04-06T03:30:21;33.85;;;16.08;;
33150;SDS011;19508;42.578;23.416;2023-04-06T03:32:46;25.58;;;13.85;;
33150;SDS011;19508;42.578;23.416;2023-04-06T03:35:12;30.88;;;15.68;;
33150;SDS011;19508;42.578;23.416;2023-04-06T03:37:37;43.95;;;21.63;;
33150;SDS011;19508;42.578;23.416;2023-04-06T03:40:03;41.10;;;16.95;;
33150;SDS011;19508;42.578;23.416;2023-04-06T03:42:29;35.20;;;16.92;;
33150;SDS011;19508;42.578;23.416;2023-04-06T03:44:55;28.02;;;14.40;;
33150;SDS011;19508;42.578;23.416;2023-04-06T03:47:21;35.55;;;17.33;;
33150;SDS011;19508;42.578;23.416;2023-04-06T03:49:46;49.13;;;19.48;;
33150;SDS011;19508;42.578;23.416;2023-04-06T03:52:12;41.88;;;18.15;;
33150;SDS011;19508;42.578;23.416;2023-04-06T03:54:37;50.92;;;22.45;;
33150;SDS011;19508;42.578;23.416;2023-04-06T03:57:03;45.17;;;19.55;;
33150;SDS011;19508;42.578;23.416;2023-04-06T03:59:29;42.45;;;17.80;;
33150;SDS011;19508;42.578;23.416;2023-04-06T04:01:55;44.78;;;19.25;;
33150;SDS011;19508;42.578;23.416;2023-04-06T04:04:21;43.40;;;20.98;;
33150;SDS011;19508;42.578;23.416;2023-04-06T04:06:47;49.25;;;22.73;;
33150;SDS011;19508;42.578;23.416;2023-04-06T04:09:12;36.00;;;17.25;;
33150;SDS011;19508;42.578;23.416;2023-04-06T04:11:38;42.05;;;19.88;;
33150;SDS011;19508;42.578;23.416;2023-04-06T04:14:03;62.50;;;23.88;;
33150;SDS011;19508;42.578;23.416;2023-04-06T04:16:29;71.32;;;30.05;;
33150;SDS011;19508;42.578;23.416;2023-04-06T04:18:54;60.90;;;24.73;;
33150;SDS011;19508;42.578;23.416;2023-04-06T04:21:20;62.40;;;24.33;;
33150;SDS011;19508;42.578;23.416;2023-04-06T04:23:45;76.50;;;26.80;;
33150;SDS011;19508;42.578;23.416;2023-04-06T04:26:11;58.40;;;25.40;;
33150;SDS011;19508;42.578;23.416;2023-04-06T04:28:36;57.80;;;24.20;;
33150;SDS011;19508;42.578;23.416;2023-04-06T04:31:02;56.15;;;25.55;;
33150;SDS011;19508;42.578;23.416;2023-04-06T04:33:27;50.10;;;24.42;;
33150;SDS011;19508;42.578;23.416;2023-04-06T04:35:53;58.25;;;24.67;;
33150;SDS011;19508;42.578;23.416;2023-04-06T04:38:18;55.97;;;23.85;;
33150;SDS011;19508;42.578;23.416;2023-04-06T04:40:44;56.92;;;24.67;;
33150;SDS011;19508;42.578;23.416;2023-04-06T04:43:09;52.40;;;21.10;;
33150;SDS011;19508;42.578;23.416;2023-04-06T04:45:34;84.60;;;35.15;;
33150;SDS011;19508;42.578;23.416;2023-04-06T04:48:00;75.45;;;30.08;;
33150;SDS011;19508;42.578;23.416;2023-04-06T04:50:25;55.17;;;24.58;;
33150;SDS011;19508;42.578;23.416;2023-04-06T04:52:51;57.03;;;24.00;;
33150;SDS011;19508;42.578;23.416;2023-04-06T04:55:16;91.35;;;33.65;;
33150;SDS011;19508;42.578;23.416;2023-04-06T04:57:42;107.97;;;41.40;;
33150;SDS011;19508;42.578;23.416;2023-04-06T05:00:08;86.88;;;35.80;;
33150;SDS011;19508;42.578;23.416;2023-04-06T05:02:34;71.05;;;28.08;;
33150;SDS011;19508;42.578;23.416;2023-04-06T05:04:59;54.75;;;23.52;;
33150;SDS011;19508;42.578;23.416;2023-04-06T05:07:25;58.42;;;22.30;;
33150;SDS011;19508;42.578;23.416;2023-04-06T05:09:50;43.08;;;18.90;;
33150;SDS011;19508;42.578;23.416;2023-04-06T05:12:16;33.55;;;17.50;;
33150;SDS011;19508;42.578;23.416;2023-04-06T05:14:41;28.30;;;13.93;;
33150;SDS011;19508;42.578;23.416;2023-04-06T05:17:07;19.75;;;10.07;;
33150;SDS011;19508;42.578;23.416;2023-04-06T05:19:32;18.25;;;9.60;;
33150;SDS011;19508;42.578;23.416;2023-04-06T05:21:58;23.73;;;9.63;;
33150;SDS011;19508;42.578;23.416;2023-04-06T05:24:23;18.42;;;9.55;;
33150;SDS011;19508;42.578;23.416;2023-04-06T05:26:49;15.80;;;9.57;;
33150;SDS011;19508;42.578;23.416;2023-04-06T05:29:14;13.93;;;8.45;;
33150;SDS011;19508;42.578;23.416;2023-04-06T05:31:41;13.52;;;7.75;;
33150;SDS011;19508;42.578;23.416;2023-04-06T05:34:07;18.40;;;9.43;;
33150;SDS011;19508;42.578;23.416;2023-04-06T05:36:34;19.63;;;9.55;;
33150;SDS011;19508;42.578;23.416;2023-04-06T05:39:00;21.30;;;10.63;;
33150;SDS011;19508;42.578;23.416;2023-04-06T05:41:25;15.20;;;7.90;;
33150;SDS011;19508;42.578;23.416;2023-04-06T05:43:51;19.85;;;9.10;;
33150;SDS011;19508;42.578;23.416;2023-04-06T05:46:16;9.38;;;5.72;;
33150;SDS011;19508;42.578;23.416;2023-04-06T05:48:42;8.05;;;3.65;;
33150;SDS011;19508;42.578;23.416;2023-04-06T05:51:07;10.07;;;5.95;;
33150;SDS011;19508;42.578;23.416;2023-04-06T05:53:32;17.38;;;7.90;;
33150;SDS011;19508;42.578;23.416;2023-04-06T05:56:01;10.70;;;6.57;;
33150;SDS011;19508;42.578;23.416;2023-04-06T05:58:28;16.13;;;7.75;;
33150;SDS011;19508;42.578;23.416;2023-04-06T06:00:57;16.90;;;8.70;;
33150;SDS011;19508;42.578;23.416;2023-04-06T06:05:51;20.77;;;8.98;;
33150;SDS011;19508;42.578;23.416;2023-04-06T06:08:16;15.13;;;8.82;;
33150;SDS011;19508;42.578;23.416;2023-04-06T06:10:42;19.73;;;9.80;;
33150;SDS011;19508;42.578;23.416;2023-04-06T06:13:08;23.55;;;10.20;;
33150;SDS011;19508;42.578;23.416;2023-04-06T06:15:33;13.63;;;8.00;;
33150;SDS011;19508;42.578;23.416;2023-04-06T06:17:59;14.23;;;7.95;;
33150;SDS011;19508;42.578;23.416;2023-04-06T06:20:25;10.88;;;5.68;;
33150;SDS011;19508;42.578;23.416;2023-04-06T06:22:51;12.88;;;7.90;;
33150;SDS011;19508;42.578;23.416;2023-04-06T06:25:17;12.20;;;6.93;;
33150;SDS011;19508;42.578;23.416;2023-04-06T06:27:42;12.00;;;6.95;;
33150;SDS011;19508;42.578;23.416;2023-04-06T06:30:08;10.80;;;5.68;;
33150;SDS011;19508;42.578;23.416;2023-04-06T06:32:33;14.88;;;7.32;;
33150;SDS011;19508;42.578;23.416;2023-04-06T06:34:59;15.15;;;6.88;;
33150;SDS011;19508;42.578;23.416;2023-04-06T06:37:24;14.32;;;8.82;;
33150;SDS011;19508;42.578;23.416;2023-04-06T06:39:50;15.70;;;8.18;;
33150;SDS011;19508;42.578;23.416;2023-04-06T06:42:15;12.98;;;6.60;;
33150;SDS011;19508;42.578;23.416;2023-04-06T06:44:40;15.48;;;8.32;;
33150;SDS011;19508;42.578;23.416;2023-04-06T06:47:06;17.17;;;9.35;;
33150;SDS011;19508;42.578;23.416;2023-04-06T06:49:31;18.25;;;7.10;;
33150;SDS011;19508;42.578;23.416;2023-04-06T06:51:57;10.75;;;5.70;;
33150;SDS011;19508;42.578;23.416;2023-04-06T06:54:22;15.23;;;7.85;;
33150;SDS011;19508;42.578;23.416;2023-04-06T06:56:48;14.85;;;7.95;;
33150;SDS011;19508;42.578;23.416;2023-04-06T06:59:13;12.55;;;7.25;;
33150;SDS011;19508;42.578;23.416;2023-04-06T07:01:38;13.65;;;5.95;;
33150;SDS011;19508;42.578;23.416;2023-04-06T07:04:04;11.07;;;6.80;;
33150;SDS011;19508;42.578;23.416;2023-04-06T07:06:29;13.02;;;5.80;;
33150;SDS011;19508;42.578;23.416;2023-04-06T07:08:55;10.48;;;6.07;;
33150;SDS011;19508;42.578;23.416;2023-04-06T07:11:20;11.15;;;6.78;;
33150;SDS011;19508;42.578;23.416;2023-04-06T07:13:46;15.07;;;7.88;;
33150;SDS011;19508;42.578;23.416;2023-04-06T07:16:11;16.13;;;8.10;;
33150;SDS011;19508;42.578;23.416;2023-04-06T07:18:37;13.68;;;8.13;;
33150;SDS011;19508;42.578;23.416;2023-04-06T07:21:02;16.25;;;7.50;;
33150;SDS011;19508;42.578;23.416;2023-04-06T07:23:28;14.95;;;7.75;;
33150;SDS011;19508;42.578;23.416;2023-04-06T07:25:53;13.93;;;6.80;;
33150;SDS011;19508;42.578;23.416;2023-04-06T07:28:19;9.48;;;5.78;;
33150;SDS011;19508;42.578;23.416;2023-04-06T07:30:45;9.73;;;5.78;;
33150;SDS011;19508;42.578;23.416;2023-04-06T07:33:10;10.65;;;5.30;;
33150;SDS011;19508;42.578;23.416;2023-04-06T07:35:36;10.00;;;5.70;;
33150;SDS011;19508;42.578;23.416;2023-04-06T07:38:02;9.13;;;5.20;;
33150;SDS011;19508;42.578;23.416;2023-04-06T07:40:28;12.52;;;7.35;;
33150;SDS011;19508;42.578;23.416;2023-04-06T07:42:53;14.45;;;7.03;;
33150;SDS011;19508;42.578;23.416;2023-04-06T07:45:19;14.55;;;7.35;;
33150;SDS011;19508;42.578;23.416;2023-04-06T07:47:45;10.43;;;5.78;;
33150;SDS011;19508;42.578;23.416;2023-04-06T07:50:11;12.25;;;6.75;;
33150;SDS011;19508;42.578;23.416;2023-04-06T07:52:37;12.10;;;6.65;;
33150;SDS011;19508;42.578;23.416;2023-04-06T07:55:03;19.42;;;6.78;;
33150;SDS011;19508;42.578;23.416;2023-04-06T07:57:29;9.70;;;6.18;;
33150;SDS011;19508;42.578;23.416;2023-04-06T07:59:55;11.93;;;6.00;;
33150;SDS011;19508;42.578;23.416;2023-04-06T08:02:20;11.10;;;5.22;;
33150;SDS011;19508;42.578;23.416;2023-04-06T08:04:47;10.30;;;5.80;;
33150;SDS011;19508;42.578;23.416;2023-04-06T08:07:13;20.17;;;7.75;;
33150;SDS011;19508;42.578;23.416;2023-04-06T08:09:38;13.18;;;6.38;;
33150;SDS011;19508;42.578;23.416;2023-04-06T08:12:04;10.77;;;6.68;;
33150;SDS011;19508;42.578;23.416;2023-04-06T08:14:29;14.60;;;8.45;;
33150;SDS011;19508;42.578;23.416;2023-04-06T08:16:54;20.60;;;7.78;;
33150;SDS011;19508;42.578;23.416;2023-04-06T08:19:20;10.80;;;5.97;;
33150;SDS011;19508;42.578;23.416;2023-04-06T08:21:45;22.20;;;8.68;;
33150;SDS011;19508;42.578;23.416;2023-04-06T08:24:12;14.15;;;9.65;;
33150;SDS011;19508;42.578;23.416;2023-04-06T08:26:38;21.05;;;7.90;;
33150;SDS011;19508;42.578;23.416;2023-04-06T08:29:03;13.88;;;7.90;;
33150;SDS011;19508;42.578;23.416;2023-04-06T08:31:32;12.75;;;5.60;;
33150;SDS011;19508;42.578;23.416;2023-04-06T08:33:58;8.98;;;6.07;;
33150;SDS011;19508;42.578;23.416;2023-04-06T08:36:24;13.63;;;6.47;;
33150;SDS011;19508;42.578;23.416;2023-04-06T08:38:49;10.15;;;5.30;;
33150;SDS011;19508;42.578;23.416;2023-04-06T08:41:15;18.27;;;6.03;;
33150;SDS011;19508;42.578;23.416;2023-04-06T08:43:46;7.20;;;3.75;;
33150;SDS011;19508;42.578;23.416;2023-04-06T08:46:13;9.07;;;5.68;;
33150;SDS011;19508;42.578;23.416;2023-04-06T08:48:40;10.88;;;6.38;;
33150;SDS011;19508;42.578;23.416;2023-04-06T08:51:07;13.07;;;5.97;;
33150;SDS011;19508;42.578;23.416;2023-04-06T08:53:34;10.05;;;5.47;;
33150;SDS011;19508;42.578;23.416;2023-04-06T08:55:59;12.07;;;5.20;;
33150;SDS011;19508;42.578;23.416;2023-04-06T08:58:27;6.68;;;4.03;;
33150;SDS011;19508;42.578;23.416;2023-04-06T09:00:55;14.57;;;5.70;;
33150;SDS011;19508;42.578;23.416;2023-04-06T09:03:21;8.50;;;5.15;;
33150;SDS011;19508;42.578;23.416;2023-04-06T09:05:47;11.23;;;6.05;;
33150;SDS011;19508;42.578;23.416;2023-04-06T09:08:13;11.07;;;6.10;;
33150;SDS011;19508;42.578;23.416;2023-04-06T09:10:42;15.65;;;7.28;;
33150;SDS011;19508;42.578;23.416;2023-04-06T09:13:08;12.88;;;6.30;;
33150;SDS011;19508;42.578;23.416;2023-04-06T09:15:34;11.43;;;5.50;;
33150;SDS011;19508;42.578;23.416;2023-04-06T09:18:00;15.30;;;6.75;;
33150;SDS011;19508;42.578;23.416;2023-04-06T09:20:26;10.90;;;5.68;;
33150;SDS011;19508;42.578;23.416;2023-04-06T09:22:54;10.70;;;6.13;;
33150;SDS011;19508;42.578;23.416;2023-04-06T09:25:21;9.45;;;4.55;;
33150;SDS011;19508;42.578;23.416;2023-04-06T09:28:01;12.73;;;6.00;;
33150;SDS011;19508;42.578;23.416;2023-04-06T09:30:28;10.10;;;5.70;;
33150;SDS011;19508;42.578;23.416;2023-04-06T09:32:54;24.83;;;6.05;;
33150;SDS011;19508;42.578;23.416;2023-04-06T09:35:21;10.65;;;4.93;;
33150;SDS011;19508;42.578;23.416;2023-04-06T09:37:48;8.60;;;5.40;;
33150;SDS011;19508;42.578;23.416;2023-04-06T09:40:15;7.40;;;4.45;;
33150;SDS011;19508;42.578;23.416;2023-04-06T09:42:44;9.52;;;5.65;;
33150;SDS011;19508;42.578;23.416;2023-04-06T09:45:11;11.57;;;5.43;;
33150;SDS011;19508;42.578;23.416;2023-04-06T09:47:40;9.05;;;4.90;;
33150;SDS011;19508;42.578;23.416;2023-04-06T09:50:09;7.70;;;4.82;;
33150;SDS011;19508;42.578;23.416;2023-04-06T09:55:23;12.20;;;6.00;;
33150;SDS011;19508;42.578;23.416;2023-04-06T09:57:58;11.52;;;5.78;;
33150;SDS011;19508;42.578;23.416;2023-04-06T10:00:43;9.27;;;5.68;;
33150;SDS011;19508;42.578;23.416;2023-04-06T10:03:14;13.52;;;6.57;;
33150;SDS011;19508;42.578;23.416;2023-04-06T10:08:28;11.88;;;6.03;;
33150;SDS011;19508;42.578;23.416;2023-04-06T10:10:57;12.88;;;4.78;;
33150;SDS011;19508;42.578;23.416;2023-04-06T10:13:23;9.93;;;5.95;;
33150;SDS011;19508;42.578;23.416;2023-04-06T10:15:50;11.82;;;6.10;;
33150;SDS011;19508;42.578;23.416;2023-04-06T10:18:16;8.25;;;4.93;;
33150;SDS011;19508;42.578;23.416;2023-04-06T10:20:43;8.95;;;5.50;;
33150;SDS011;19508;42.578;23.416;2023-04-06T10:23:29;10.98;;;6.25;;
33150;SDS011;19508;42.578;23.416;2023-04-06T10:25:59;13.15;;;6.43;;
33150;SDS011;19508;42.578;23.416;2023-04-06T10:28:29;11.13;;;6.20;;
33150;SDS011;19508;42.578;23.416;2023-04-06T10:31:00;11.10;;;6.80;;
33150;SDS011;19508;42.578;23.416;2023-04-06T10:33:29;10.43;;;6.30;;
33150;SDS011;19508;42.578;23.416;2023-04-06T10:35:55;6.72;;;3.83;;
33150;SDS011;19508;42.578;23.416;2023-04-06T10:38:21;9.75;;;5.25;;
33150;SDS011;19508;42.578;23.416;2023-04-06T10:40:58;10.50;;;6.47;;
33150;SDS011;19508;42.578;23.416;2023-04-06T10:43:36;13.20;;;7.07;;
33150;SDS011;19508;42.578;23.416;2023-04-06T10:46:04;12.85;;;7.20;;
33150;SDS011;19508;42.578;23.416;2023-04-06T10:48:41;11.68;;;7.03;;
33150;SDS011;19508;42.578;23.416;2023-04-06T10:51:13;12.32;;;7.30;;
33150;SDS011;19508;42.578;23.416;2023-04-06T10:53:44;11.55;;;7.57;;
33150;SDS011;19508;42.578;23.416;2023-04-06T10:56:15;11.35;;;5.90;;
33150;SDS011;19508;42.578;23.416;2023-04-06T10:58:49;16.13;;;7.95;;
33150;SDS011;19508;42.578;23.416;2023-04-06T11:01:16;16.17;;;8.02;;
33150;SDS011;19508;42.578;23.416;2023-04-06T11:03:46;14.30;;;8.18;;
33150;SDS011;19508;42.578;23.416;2023-04-06T11:06:19;17.52;;;8.07;;
33150;SDS011;19508;42.578;23.416;2023-04-06T11:08:49;18.20;;;8.85;;
33150;SDS011;19508;42.578;23.416;2023-04-06T11:11:16;17.52;;;7.78;;
33150;SDS011;19508;42.578;23.416;2023-04-06T11:13:48;21.05;;;8.90;;
33150;SDS011;19508;42.578;23.416;2023-04-06T11:16:19;14.45;;;7.82;;
33150;SDS011;19508;42.578;23.416;2023-04-06T11:24:20;16.35;;;8.10;;
33150;SDS011;19508;42.578;23.416;2023-04-06T11:26:50;16.60;;;6.97;;
33150;SDS011;19508;42.578;23.416;2023-04-06T11:29:25;18.10;;;8.20;;
33150;SDS011;19508;42.578;23.416;2023-04-06T11:31:59;12.10;;;7.13;;
33150;SDS011;19508;42.578;23.416;2023-04-06T11:34:29;16.20;;;8.38;;
33150;SDS011;19508;42.578;23.416;2023-04-06T11:37:00;16.45;;;7.72;;
33150;SDS011;19508;42.578;23.416;2023-04-06T11:39:32;15.15;;;8.55;;
33150;SDS011;19508;42.578;23.416;2023-04-06T11:42:03;23.52;;;8.60;;
33150;SDS011;19508;42.578;23.416;2023-04-06T11:46:56;18.60;;;8.43;;
33150;SDS011;19508;42.578;23.416;2023-04-06T11:49:26;15.35;;;8.07;;
33150;SDS011;19508;42.578;23.416;2023-04-06T11:51:52;13.63;;;8.38;;
33150;SDS011;19508;42.578;23.416;2023-04-06T11:54:17;19.23;;;8.35;;
33150;SDS011;19508;42.578;23.416;2023-04-06T11:56:45;18.58;;;9.02;;
33150;SDS011;19508;42.578;23.416;2023-04-06T11:59:11;13.20;;;7.57;;
33150;SDS011;19508;42.578;23.416;2023-04-06T12:01:44;18.95;;;8.52;;
33150;SDS011;19508;42.578;23.416;2023-04-06T12:04:10;16.70;;;9.30;;
33150;SDS011;19508;42.578;23.416;2023-04-06T12:06:36;16.38;;;8.23;;
33150;SDS011;19508;42.578;23.416;2023-04-06T12:09:01;16.27;;;8.43;;
33150;SDS011;19508;42.578;23.416;2023-04-06T12:11:27;13.15;;;8.10;;
33150;SDS011;19508;42.578;23.416;2023-04-06T12:13:52;14.60;;;7.43;;
33150;SDS011;19508;42.578;23.416;2023-04-06T12:16:18;19.52;;;8.57;;
33150;SDS011;19508;42.578;23.416;2023-04-06T12:18:44;17.80;;;8.07;;
33150;SDS011;19508;42.578;23.416;2023-04-06T12:21:09;22.77;;;9.52;;
33150;SDS011;19508;42.578;23.416;2023-04-06T12:23:35;15.82;;;9.45;;
33150;SDS011;19508;42.578;23.416;2023-04-06T12:26:01;18.92;;;8.23;;
33150;SDS011;19508;42.578;23.416;2023-04-06T12:28:26;12.63;;;7.72;;
33150;SDS011;19508;42.578;23.416;2023-04-06T12:30:52;13.90;;;8.00;;
33150;SDS011;19508;42.578;23.416;2023-04-06T12:33:18;12.27;;;7.05;;
33150;SDS011;19508;42.578;23.416;2023-04-06T12:35:44;10.48;;;7.38;;
33150;SDS011;19508;42.578;23.416;2023-04-06T12:38:09;13.65;;;8.27;;
33150;SDS011;19508;42.578;23.416;2023-04-06T12:40:38;12.82;;;8.45;;
33150;SDS011;19508;42.578;23.416;2023-04-06T12:43:04;14.80;;;7.22;;
33150;SDS011;19508;42.578;23.416;2023-04-06T12:45:31;13.45;;;7.88;;
33150;SDS011;19508;42.578;23.416;2023-04-06T12:47:58;14.00;;;8.63;;
33150;SDS011;19508;42.578;23.416;2023-04-06T12:50:23;17.33;;;7.70;;
33150;SDS011;19508;42.578;23.416;2023-04-06T12:52:49;17.50;;;7.28;;
33150;SDS011;19508;42.578;23.416;2023-04-06T12:55:15;12.85;;;8.10;;
33150;SDS011;19508;42.578;23.416;2023-04-06T12:57:40;21.30;;;8.52;;
33150;SDS011;19508;42.578;23.416;2023-04-06T13:00:06;14.85;;;8.18;;
33150;SDS011;19508;42.578;23.416;2023-04-06T13:02:32;13.15;;;7.75;;
33150;SDS011;19508;42.578;23.416;2023-04-06T13:04:58;14.40;;;8.10;;
33150;SDS011;19508;42.578;23.416;2023-04-06T13:07:23;12.13;;;7.93;;
33150;SDS011;19508;42.578;23.416;2023-04-06T13:09:48;15.35;;;7.85;;
33150;SDS011;19508;42.578;23.416;2023-04-06T13:12:15;16.75;;;7.97;;
33150;SDS011;19508;42.578;23.416;2023-04-06T13:14:40;16.92;;;7.85;;
33150;SDS011;19508;42.578;23.416;2023-04-06T13:17:06;18.05;;;8.18;;
33150;SDS011;19508;42.578;23.416;2023-04-06T13:19:32;14.88;;;7.85;;
33150;SDS011;19508;42.578;23.416;2023-04-06T13:21:57;15.15;;;8.20;;
33150;SDS011;19508;42.578;23.416;2023-04-06T13:24:23;19.52;;;8.85;;
33150;SDS011;19508;42.578;23.416;2023-04-06T13:26:49;14.23;;;7.43;;
33150;SDS011;19508;42.578;23.416;2023-04-06T13:29:14;17.50;;;7.80;;
33150;SDS011;19508;42.578;23.416;2023-04-06T13:31:40;16.45;;;9.13;;
33150;SDS011;19508;42.578;23.416;2023-04-06T13:34:06;18.38;;;8.35;;
33150;SDS011;19508;42.578;23.416;2023-04-06T13:36:32;19.00;;;10.27;;
33150;SDS011;19508;42.578;23.416;2023-04-06T13:38:57;13.57;;;8.65;;
33150;SDS011;19508;42.578;23.416;2023-04-06T13:41:24;26.10;;;8.13;;
33150;SDS011;19508;42.578;23.416;2023-04-06T13:43:51;16.42;;;8.23;;
33150;SDS011;19508;42.578;23.416;2023-04-06T13:46:17;18.20;;;9.20;;
33150;SDS011;19508;42.578;23.416;2023-04-06T13:48:43;20.25;;;9.50;;
33150;SDS011;19508;42.578;23.416;2023-04-06T13:51:09;16.05;;;7.55;;
33150;SDS011;19508;42.578;23.416;2023-04-06T13:53:35;13.60;;;7.47;;
33150;SDS011;19508;42.578;23.416;2023-04-06T13:56:00;8.43;;;4.22;;
33150;SDS011;19508;42.578;23.416;2023-04-06T13:58:26;14.75;;;7.50;;
33150;SDS011;19508;42.578;23.416;2023-04-06T14:00:51;11.77;;;7.30;;
33150;SDS011;19508;42.578;23.416;2023-04-06T14:03:17;17.63;;;7.15;;
33150;SDS011;19508;42.578;23.416;2023-04-06T14:05:43;11.38;;;6.75;;
33150;SDS011;19508;42.578;23.416;2023-04-06T14:08:09;14.43;;;6.90;;
33150;SDS011;19508;42.578;23.416;2023-04-06T14:10:40;13.75;;;7.75;;
33150;SDS011;19508;42.578;23.416;2023-04-06T14:13:07;15.30;;;8.32;;
33150;SDS011;19508;42.578;23.416;2023-04-06T14:15:32;23.23;;;7.88;;
33150;SDS011;19508;42.578;23.416;2023-04-06T14:17:58;21.38;;;10.35;;
33150;SDS011;19508;42.578;23.416;2023-04-06T14:20:23;41.78;;;15.57;;
33150;SDS011;19508;42.578;23.416;2023-04-06T14:22:49;18.35;;;7.82;;
33150;SDS011;19508;42.578;23.416;2023-04-06T14:25:16;32.80;;;12.45;;
33150;SDS011;19508;42.578;23.416;2023-04-06T14:27:42;57.67;;;20.48;;
33150;SDS011;19508;42.578;23.416;2023-04-06T14:30:08;35.58;;;11.65;;